Terminal Aerodrome Forecast
Issued by NWS

Home | Current Version | Previous Version | Text Only | Print | Product List | Glossary On
Versions: 1 2 3 4 5 6 7 8 9 10 11 12 13 14 15
000
FTUS43 KMQT 301739
TAFCMX
TAF
KCMX 301739Z 3018/3118 27017G26KT P6SM FEW080
     FM310000 26013G21KT P6SM FEW090
     FM310300 27010KT P6SM FEW100
     FM311200 29011KT P6SM FEW070
     FM311400 29012G17KT P6SM FEW050=

USA.gov is the U.S. government's official web portal to all federal, state and local government web resources and services.